createdAt,value
2022-11-12T00:00:42.748Z,6.52
2022-11-12T00:03:09.631Z,6.54
2022-11-12T00:05:36.752Z,6.55
2022-11-12T00:08:03.833Z,6.51
2022-11-12T00:10:31.770Z,6.50
2022-11-12T00:12:58.923Z,6.45
2022-11-12T00:15:26.335Z,6.45
2022-11-12T00:17:53.058Z,6.45
2022-11-12T00:20:19.621Z,6.47
2022-11-12T00:22:46.087Z,6.50
2022-11-12T00:25:12.646Z,6.53
2022-11-12T00:27:39.098Z,6.55
2022-11-12T00:30:06.342Z,6.56
2022-11-12T00:32:35.964Z,6.48
2022-11-12T00:35:02.887Z,6.41
2022-11-12T00:37:29.485Z,6.37
2022-11-12T00:39:55.981Z,6.38
2022-11-12T00:42:22.586Z,6.35
2022-11-12T00:44:49.899Z,6.37
2022-11-12T00:47:16.598Z,6.32
2022-11-12T00:49:42.997Z,6.20
2022-11-12T00:52:09.529Z,6.23
2022-11-12T00:54:35.918Z,6.23
2022-11-12T00:57:02.321Z,6.23
2022-11-12T00:59:28.744Z,6.22
2022-11-12T01:01:55.248Z,6.15
2022-11-12T01:04:21.652Z,6.13
2022-11-12T01:06:48.304Z,6.16
2022-11-12T01:09:14.785Z,6.20
2022-11-12T01:11:41.583Z,6.20
2022-11-12T01:14:09.875Z,6.09
2022-11-12T01:16:39.092Z,5.97
2022-11-12T01:19:09.214Z,5.99
2022-11-12T01:21:39.432Z,6.04
2022-11-12T01:24:06.081Z,6.08
2022-11-12T01:26:32.491Z,6.07
2022-11-12T01:28:58.975Z,6.05
2022-11-12T01:31:26.870Z,6.03
2022-11-12T01:33:58.770Z,6.01
2022-11-12T01:36:26.631Z,5.96
2022-11-12T01:38:54.147Z,5.97
2022-11-12T01:41:28.420Z,5.96
2022-11-12T01:44:20.453Z,6.01
2022-11-12T01:46:46.835Z,5.97
2022-11-12T01:49:31.949Z,5.91
2022-11-12T01:52:08.507Z,5.90
2022-11-12T01:54:35.351Z,5.88
2022-11-12T01:57:02.656Z,5.89
2022-11-12T01:59:45.041Z,5.82
2022-11-12T02:02:12.241Z,5.81
2022-11-12T02:04:40.654Z,5.82
2022-11-12T02:07:08.624Z,5.83
2022-11-12T02:09:36.213Z,5.81
2022-11-12T02:12:02.895Z,5.76
2022-11-12T02:14:30.310Z,5.75
2022-11-12T02:16:57.821Z,5.73
2022-11-12T02:19:24.294Z,5.72
2022-11-12T02:21:50.722Z,5.75
2022-11-12T02:24:17.102Z,5.74
2022-11-12T02:26:48.802Z,5.67
2022-11-12T02:29:15.188Z,5.64
2022-11-12T02:31:41.603Z,5.61
2022-11-12T02:34:08.168Z,5.59
2022-11-12T02:36:34.682Z,5.56
2022-11-12T02:39:01.103Z,5.57
2022-11-12T02:41:27.563Z,5.56
2022-11-12T02:43:53.995Z,5.58
2022-11-12T02:46:20.661Z,5.50
2022-11-12T02:48:47.095Z,5.54
2022-11-12T02:51:13.675Z,5.55
2022-11-12T02:53:40.071Z,5.47
2022-11-12T02:56:06.834Z,5.52
2022-11-12T02:58:33.255Z,5.51
2022-11-12T03:00:59.719Z,5.47
2022-11-12T03:03:26.139Z,5.53
2022-11-12T03:06:01.120Z,5.41
2022-11-12T03:08:28.158Z,5.41
2022-11-12T03:10:54.880Z,5.38
2022-11-12T03:13:21.315Z,5.38
2022-11-12T03:15:48.237Z,5.36
2022-11-12T03:18:14.725Z,5.36
2022-11-12T03:20:41.230Z,5.38
2022-11-12T03:23:10.226Z,5.38
2022-11-12T03:25:37.140Z,5.39
2022-11-12T03:28:09.853Z,5.39
2022-11-12T03:30:39.702Z,5.36
2022-11-12T03:33:08.130Z,5.36
2022-11-12T03:35:35.340Z,5.36
2022-11-12T03:38:02.398Z,5.32
2022-11-12T03:40:29.955Z,5.35
2022-11-12T03:42:56.669Z,5.31
2022-11-12T03:45:25.148Z,5.30
2022-11-12T03:47:54.449Z,5.29
2022-11-12T03:50:23.790Z,5.26
2022-11-12T03:52:52.710Z,5.17
2022-11-12T03:55:21.654Z,5.07
2022-11-12T03:57:49.497Z,5.12
2022-11-12T04:00:16.717Z,5.17
2022-11-12T04:02:43.254Z,5.20
2022-11-12T04:05:28.529Z,5.25
2022-11-12T04:08:22.004Z,5.20
2022-11-12T04:10:48.659Z,5.18
2022-11-12T04:13:30.284Z,5.18
2022-11-12T04:16:26.004Z,5.18
2022-11-12T04:19:13.807Z,5.12
2022-11-12T04:22:10.722Z,5.12
2022-11-12T04:24:57.990Z,5.17
2022-11-12T04:27:32.841Z,5.16
2022-11-12T04:30:19.470Z,5.14
2022-11-12T04:32:52.875Z,4.98
2022-11-12T04:35:19.379Z,4.96
2022-11-12T04:37:45.944Z,4.98
2022-11-12T04:40:38.283Z,4.97
2022-11-12T04:43:25.136Z,4.99
2022-11-12T04:45:53.676Z,5.01
2022-11-12T04:48:21.333Z,4.99
2022-11-12T04:50:52.291Z,5.00
2022-11-12T04:53:18.937Z,4.98
2022-11-12T04:55:45.347Z,4.98
2022-11-12T04:58:12.547Z,4.96
2022-11-12T05:00:38.936Z,4.94
2022-11-12T05:03:05.371Z,4.91
2022-11-12T05:05:34.060Z,4.92
2022-11-12T05:08:02.121Z,4.94
2022-11-12T05:10:28.932Z,4.97
2022-11-12T05:12:55.365Z,4.92
2022-11-12T05:15:21.989Z,4.95
2022-11-12T05:17:48.419Z,4.97
2022-11-12T05:20:15.665Z,4.94
2022-11-12T05:22:47.713Z,4.90
2022-11-12T05:25:17.037Z,4.92
2022-11-12T05:27:43.438Z,4.87
2022-11-12T05:30:10.421Z,4.83
2022-11-12T05:32:37.462Z,4.79
2022-11-12T05:35:04.203Z,4.79
2022-11-12T05:37:30.611Z,4.77
2022-11-12T05:39:57.070Z,4.83
2022-11-12T05:42:23.573Z,4.84
2022-11-12T05:44:49.981Z,4.82
2022-11-12T05:47:16.729Z,4.81
2022-11-12T05:49:43.250Z,4.76
2022-11-12T05:52:09.705Z,4.74
2022-11-12T05:54:36.094Z,4.72
2022-11-12T05:57:02.577Z,4.73
2022-11-12T05:59:29.031Z,4.69
2022-11-12T06:01:55.423Z,4.73
2022-11-12T06:04:23.174Z,4.71
2022-11-12T06:06:49.626Z,4.72
2022-11-12T06:09:16.050Z,4.72
2022-11-12T06:11:42.603Z,4.72
2022-11-12T06:14:09.084Z,4.73
2022-11-12T06:16:35.473Z,4.70
2022-11-12T06:19:01.917Z,4.65
2022-11-12T06:21:28.767Z,4.61
2022-11-12T06:23:57.889Z,4.61
2022-11-12T06:26:26.927Z,4.62
2022-11-12T06:28:53.934Z,4.59
2022-11-12T06:31:21.016Z,4.58
2022-11-12T06:33:47.878Z,4.60
2022-11-12T06:36:16.830Z,4.58
2022-11-12T06:38:44.142Z,4.58
2022-11-12T06:41:12.372Z,4.55
2022-11-12T06:43:39.793Z,4.55
2022-11-12T06:46:13.073Z,4.56
2022-11-12T06:48:40.398Z,4.56
2022-11-12T06:51:09.092Z,4.55
2022-11-12T06:53:35.658Z,4.54
2022-11-12T06:56:06.524Z,4.55
2022-11-12T06:58:33.665Z,4.51
2022-11-12T07:01:20.427Z,4.44
2022-11-12T07:03:46.919Z,4.57
2022-11-12T07:06:18.294Z,4.59
2022-11-12T07:08:45.403Z,4.63
2022-11-12T07:11:12.401Z,4.66
2022-11-12T07:13:39.445Z,4.66
2022-11-12T07:16:08.045Z,4.67
2022-11-12T07:18:35.363Z,4.70
2022-11-12T07:21:05.549Z,4.74
2022-11-12T07:23:34.903Z,4.74
2022-11-12T07:26:23.836Z,4.76
2022-11-12T07:28:52.291Z,4.79
2022-11-12T07:31:20.132Z,4.79
2022-11-12T07:33:48.856Z,4.84
2022-11-12T07:36:17.873Z,4.89
2022-11-12T07:38:45.387Z,4.96
2022-11-12T07:41:20.757Z,4.99
2022-11-12T07:43:50.160Z,5.05
2022-11-12T07:46:19.452Z,5.11
2022-11-12T07:48:46.625Z,5.13
2022-11-12T07:51:24.833Z,5.19
2022-11-12T07:53:58.709Z,5.20
2022-11-12T07:56:27.650Z,5.26
2022-11-12T07:58:54.378Z,5.34
2022-11-12T08:01:20.797Z,5.43
2022-11-12T08:03:47.336Z,5.51
2022-11-12T08:06:13.741Z,5.55
2022-11-12T08:08:40.358Z,5.64
2022-11-12T08:11:06.795Z,5.72
2022-11-12T08:13:33.185Z,5.82
2022-11-12T08:16:00.050Z,5.88
2022-11-12T08:18:27.387Z,5.96
2022-11-12T08:21:00.435Z,6.08
2022-11-12T08:23:26.959Z,6.18
2022-11-12T08:25:57.088Z,6.26
2022-11-12T08:28:23.572Z,6.38
2022-11-12T08:30:50.097Z,6.52
2022-11-12T08:33:16.696Z,6.62
2022-11-12T08:35:43.189Z,6.79
2022-11-12T08:38:10.752Z,6.94
2022-11-12T08:40:37.256Z,7.11
2022-11-12T08:43:06.414Z,7.26
2022-11-12T08:45:34.353Z,7.42
2022-11-12T08:48:06.083Z,7.60
2022-11-12T08:50:33.450Z,7.77
2022-11-12T08:53:01.919Z,7.97
2022-11-12T08:55:30.123Z,8.16
2022-11-12T08:58:01.849Z,8.34
2022-11-12T09:00:34.173Z,8.49
2022-11-12T09:03:01.807Z,8.76
2022-11-12T09:05:28.694Z,8.98
2022-11-12T09:08:04.032Z,9.20
2022-11-12T09:10:30.734Z,9.43
2022-11-12T09:12:57.243Z,9.60
2022-11-12T09:15:40.423Z,9.80
2022-11-12T09:18:10.967Z,10.02
2022-11-12T09:20:37.718Z,10.28
2022-11-12T09:23:07.284Z,10.50
2022-11-12T09:25:34.477Z,10.71
2022-11-12T09:28:15.441Z,10.91
2022-11-12T09:30:46.426Z,11.05
2022-11-12T09:33:17.533Z,11.23
2022-11-12T09:35:45.484Z,11.41
2022-11-12T09:38:12.253Z,11.62
2022-11-12T09:40:50.954Z,11.83
2022-11-12T09:43:41.286Z,12.07
2022-11-12T09:46:36.629Z,12.30
2022-11-12T09:49:16.194Z,12.48
2022-11-12T09:51:51.779Z,12.68
2022-11-12T09:54:21.520Z,12.90
2022-11-12T09:56:49.415Z,13.10
2022-11-12T09:59:16.645Z,13.30
2022-11-12T10:01:53.617Z,13.48
2022-11-12T10:05:08.280Z,13.72
2022-11-12T10:08:04.042Z,13.97
2022-11-12T10:10:33.551Z,14.20
2022-11-12T10:13:24.773Z,14.39
2022-11-12T10:16:21.619Z,14.63
2022-11-12T10:18:59.954Z,14.81
2022-11-12T10:21:41.103Z,15.06
2022-11-12T10:24:12.063Z,15.30
2022-11-12T10:26:39.842Z,15.56
2022-11-12T10:29:25.098Z,15.83
2022-11-12T10:31:51.567Z,16.14
2022-11-12T10:34:20.641Z,16.39
2022-11-12T10:37:25.423Z,16.74
2022-11-12T10:39:52.615Z,17.31
2022-11-12T10:42:23.573Z,17.83
2022-11-12T10:44:50.131Z,18.41
2022-11-12T10:47:23.570Z,19.06
2022-11-12T10:50:08.495Z,19.65
2022-11-12T10:52:36.016Z,20.27
2022-11-12T10:55:24.398Z,20.69
2022-11-12T10:58:26.539Z,21.39
2022-11-12T11:00:56.327Z,21.88
2022-11-12T11:03:25.950Z,22.58
2022-11-12T11:05:56.266Z,23.72
2022-11-12T11:08:53.085Z,24.39
2022-11-12T11:11:21.505Z,24.55
2022-11-12T11:13:55.276Z,24.83
2022-11-12T11:16:26.623Z,25.18
2022-11-12T11:18:59.451Z,25.76
2022-11-12T11:21:42.460Z,26.14
2022-11-12T11:24:25.804Z,26.27
2022-11-12T11:27:17.089Z,26.13
2022-11-12T11:29:55.775Z,25.59
2022-11-12T11:32:43.631Z,25.40
2022-11-12T11:35:13.027Z,25.89
2022-11-12T11:37:58.417Z,26.28
2022-11-12T11:40:37.446Z,26.26
2022-11-12T11:43:20.090Z,26.00
2022-11-12T11:46:05.629Z,25.82
2022-11-12T11:48:50.640Z,25.65
2022-11-12T11:51:35.179Z,25.91
2022-11-12T11:54:07.783Z,26.00
2022-11-12T11:56:40.463Z,26.22
2022-11-12T11:59:28.043Z,26.31
2022-11-12T12:02:28.902Z,25.98
2022-11-12T12:05:10.285Z,26.54
2022-11-12T12:08:02.949Z,27.12
2022-11-12T12:11:07.727Z,27.61
2022-11-12T12:13:43.930Z,28.18
2022-11-12T12:16:22.488Z,28.58
2022-11-12T12:19:14.963Z,29.15
2022-11-12T12:21:46.715Z,29.42
2022-11-12T12:24:25.322Z,29.84
2022-11-12T12:27:08.837Z,30.17
2022-11-12T12:29:47.585Z,30.30
2022-11-12T12:32:24.014Z,30.29
2022-11-12T12:35:06.154Z,29.84
2022-11-12T12:38:03.092Z,29.56
2022-11-12T12:40:39.213Z,29.59
2022-11-12T12:43:29.565Z,29.76
2022-11-12T12:45:57.787Z,29.67
2022-11-12T12:48:32.629Z,29.43
2022-11-12T12:50:59.055Z,29.76
2022-11-12T12:53:25.444Z,29.98
2022-11-12T12:55:54.418Z,30.13
2022-11-12T12:58:28.838Z,30.70
2022-11-12T13:01:01.402Z,30.99
2022-11-12T13:03:46.105Z,30.94
2022-11-12T13:06:22.114Z,30.53
2022-11-12T13:09:02.568Z,30.35
2022-11-12T13:11:59.969Z,30.21
2022-11-12T13:14:35.437Z,30.33
2022-11-12T13:17:11.739Z,30.41
2022-11-12T13:19:46.687Z,30.77
2022-11-12T13:22:18.901Z,30.72
2022-11-12T13:25:05.723Z,30.59
2022-11-12T13:27:44.364Z,30.50
2022-11-12T13:30:13.586Z,30.75
2022-11-12T13:32:46.138Z,31.08
2022-11-12T13:35:18.619Z,31.72
2022-11-12T13:38:15.335Z,32.20
2022-11-12T13:40:50.799Z,32.55
2022-11-12T13:43:38.543Z,32.95
2022-11-12T13:46:11.085Z,33.60
2022-11-12T13:48:47.018Z,34.07
2022-11-12T13:51:21.738Z,33.79
2022-11-12T13:53:48.248Z,33.11
2022-11-12T13:56:32.833Z,31.26
2022-11-12T13:59:28.842Z,31.31
2022-11-12T14:01:55.867Z,32.17
2022-11-12T14:04:24.323Z,32.63
2022-11-12T14:06:53.812Z,32.60
2022-11-12T14:09:44.710Z,32.60
2022-11-12T14:12:17.157Z,32.51
2022-11-12T14:14:46.589Z,32.51
2022-11-12T14:17:38.612Z,32.27
2022-11-12T14:20:07.964Z,32.33
2022-11-12T14:22:43.188Z,32.23
2022-11-12T14:25:25.253Z,31.95
2022-11-12T14:27:53.861Z,31.75
2022-11-12T14:30:24.922Z,31.59
2022-11-12T14:32:59.894Z,30.92
2022-11-12T14:35:27.754Z,28.74
2022-11-12T14:38:05.560Z,27.11
2022-11-12T14:40:36.365Z,26.05
2022-11-12T14:43:02.832Z,25.23
2022-11-12T14:45:34.179Z,24.78
2022-11-12T14:48:01.843Z,24.34
2022-11-12T14:50:37.355Z,23.87
2022-11-12T14:53:41.507Z,23.16
2022-11-12T14:56:15.395Z,22.86
2022-11-12T14:58:42.042Z,22.33
2022-11-12T15:04:26.127Z,21.31
2022-11-12T15:06:57.767Z,20.92
2022-11-12T15:09:38.372Z,20.50
2022-11-12T15:12:12.624Z,20.22
2022-11-12T15:14:39.188Z,19.94
2022-11-12T15:17:06.048Z,19.68
2022-11-12T15:19:33.023Z,19.38
2022-11-12T15:22:01.732Z,18.97
2022-11-12T15:24:37.590Z,18.79
2022-11-12T15:27:37.390Z,18.52
2022-11-12T15:30:36.193Z,18.17
2022-11-12T15:33:11.535Z,17.88
2022-11-12T15:35:37.905Z,17.71
2022-11-12T15:38:11.444Z,17.52
2022-11-12T15:40:43.452Z,17.36
2022-11-12T15:43:16.504Z,17.21
2022-11-12T15:45:43.300Z,17.10
2022-11-12T15:48:12.213Z,16.92
2022-11-12T15:50:39.142Z,16.76
2022-11-12T15:53:06.054Z,16.60
2022-11-12T15:55:33.892Z,16.44
2022-11-12T15:58:00.401Z,16.29
2022-11-12T16:00:32.879Z,16.08
2022-11-12T16:03:12.398Z,15.88
2022-11-12T16:05:38.874Z,15.76
2022-11-12T17:15:40.175Z,12.47
2022-11-12T17:18:11.788Z,12.53
2022-11-12T17:20:38.272Z,12.53
2022-11-12T17:23:04.695Z,12.48
2022-11-12T17:25:31.155Z,12.44
2022-11-12T17:27:57.667Z,12.48
2022-11-12T17:30:24.145Z,12.43
2022-11-12T17:32:50.596Z,12.39
2022-11-12T17:35:17.044Z,12.34
2022-11-12T17:37:43.495Z,12.31
2022-11-12T17:40:10.466Z,12.25
2022-11-12T17:42:36.877Z,12.24
2022-11-12T17:45:03.581Z,12.18
2022-11-12T17:47:30.049Z,12.18
2022-11-12T17:49:56.487Z,12.13
2022-11-12T17:52:22.896Z,12.09
2022-11-12T17:54:49.348Z,12.08
2022-11-12T17:57:15.802Z,12.01
2022-11-12T17:59:42.241Z,12.00
2022-11-12T18:02:12.313Z,11.95
2022-11-12T18:04:38.897Z,11.93
2022-11-12T18:07:05.475Z,11.89
2022-11-12T18:09:31.922Z,11.78
2022-11-12T18:11:58.836Z,11.75
2022-11-12T18:14:26.004Z,11.72
2022-11-12T18:16:52.553Z,11.69
2022-11-12T18:19:19.051Z,11.69
2022-11-12T18:21:45.829Z,11.64
2022-11-12T18:24:15.079Z,11.69
2022-11-12T18:26:42.909Z,11.66
2022-11-12T18:29:09.406Z,11.63
2022-11-12T18:31:35.880Z,11.56
2022-11-12T18:34:02.334Z,11.56
2022-11-12T18:36:29.133Z,11.52
2022-11-12T18:38:56.277Z,11.52
2022-11-12T18:41:30.138Z,11.50
2022-11-12T18:43:56.864Z,11.48
2022-11-12T18:46:23.433Z,11.43
2022-11-12T18:48:50.709Z,11.40
2022-11-12T18:51:19.144Z,11.37
2022-11-12T18:53:47.411Z,11.36
2022-11-12T18:56:16.602Z,11.33
2022-11-12T18:58:43.367Z,11.36
2022-11-12T19:01:15.950Z,11.30
2022-11-12T19:03:43.241Z,11.28
2022-11-12T19:06:14.255Z,11.32
2022-11-12T19:08:41.389Z,11.28
2022-11-12T19:11:10.683Z,11.25
2022-11-12T19:13:37.574Z,11.22
2022-11-12T19:16:17.214Z,11.22
2022-11-12T19:18:44.723Z,11.22
2022-11-12T19:21:17.250Z,11.16
2022-11-12T19:23:43.886Z,11.15
2022-11-12T19:26:15.597Z,11.08
2022-11-12T19:28:42.912Z,11.05
2022-11-12T19:31:18.185Z,11.04
2022-11-12T19:33:44.888Z,11.02
2022-11-12T19:36:23.239Z,10.97
2022-11-12T19:38:57.609Z,10.86
2022-11-12T19:41:24.906Z,10.83
2022-11-12T19:43:52.079Z,10.80
2022-11-12T19:46:19.432Z,10.74
2022-11-12T19:48:46.085Z,10.72
2022-11-12T19:51:13.681Z,10.71
2022-11-12T19:53:44.520Z,10.70
2022-11-12T19:56:13.521Z,10.72
2022-11-12T19:58:43.978Z,10.69
2022-11-12T20:01:13.345Z,10.64
2022-11-12T20:03:40.284Z,10.59
2022-11-12T20:06:09.649Z,10.61
2022-11-12T20:08:36.563Z,10.57
2022-11-12T20:11:03.141Z,10.57
2022-11-12T20:13:29.922Z,10.59
2022-11-12T20:15:56.673Z,10.51
2022-11-12T20:18:23.525Z,10.52
2022-11-12T20:20:55.367Z,10.47
2022-11-12T20:23:26.069Z,10.45
2022-11-12T20:25:52.978Z,10.44
2022-11-12T20:28:19.733Z,10.33
2022-11-12T20:30:46.241Z,10.34
2022-11-12T20:33:13.970Z,10.33
2022-11-12T20:35:40.425Z,10.34
2022-11-12T20:38:06.837Z,10.31
2022-11-12T20:40:33.261Z,10.29
2022-11-12T20:42:59.703Z,10.28
2022-11-12T20:45:27.061Z,10.26
2022-11-12T20:47:56.109Z,10.26
2022-11-12T20:50:22.611Z,10.25
2022-11-12T20:52:49.080Z,10.19
2022-11-12T20:55:15.633Z,10.17
2022-11-12T20:57:42.101Z,10.21
2022-11-12T21:00:13.556Z,10.14
2022-11-12T21:02:40.735Z,10.14
2022-11-12T21:05:07.425Z,10.17
2022-11-12T21:07:33.885Z,10.17
2022-11-12T21:10:00.409Z,10.17
2022-11-12T21:12:27.233Z,10.15
2022-11-12T21:14:53.711Z,10.11
2022-11-12T21:17:20.461Z,10.11
2022-11-12T21:19:46.987Z,10.16
2022-11-12T21:22:15.408Z,10.11
2022-11-12T21:24:41.858Z,10.13
2022-11-12T21:27:08.281Z,10.00
2022-11-12T21:29:34.757Z,10.06
2022-11-12T21:32:01.164Z,10.14
2022-11-12T21:34:27.640Z,10.11
2022-11-12T21:36:54.092Z,10.10
2022-11-12T21:39:20.791Z,10.10
2022-11-12T21:41:47.230Z,10.13
2022-11-12T21:44:13.718Z,10.16
2022-11-12T21:46:40.446Z,10.13
2022-11-12T21:49:06.990Z,10.14
2022-11-12T21:51:33.476Z,10.11
2022-11-12T21:54:05.385Z,10.11
2022-11-12T21:56:34.008Z,10.06
2022-11-12T21:59:01.468Z,10.06
2022-11-12T22:01:30.211Z,9.98
2022-11-12T22:03:57.978Z,9.96
2022-11-12T22:06:27.280Z,9.95
2022-11-12T22:08:55.283Z,9.96
2022-11-12T22:11:22.293Z,9.96
2022-11-12T22:13:48.917Z,9.98
2022-11-12T22:16:19.283Z,9.96
2022-11-12T22:18:47.796Z,9.95
2022-11-12T22:21:23.158Z,9.89
2022-11-12T22:23:49.718Z,9.89
2022-11-12T22:26:20.711Z,9.86
2022-11-12T22:28:47.925Z,9.81
2022-11-12T22:31:17.144Z,9.75
2022-11-12T22:33:43.633Z,9.71
2022-11-12T22:36:20.778Z,9.71
2022-11-12T22:38:48.768Z,9.70
2022-11-12T22:41:27.219Z,9.66
2022-11-12T22:43:56.247Z,9.62
2022-11-12T22:46:27.900Z,9.60
2022-11-12T22:48:55.251Z,9.58
2022-11-12T22:51:24.436Z,9.52
2022-11-12T22:53:59.333Z,9.51
2022-11-12T22:56:27.101Z,9.46
2022-11-12T22:58:54.781Z,9.45
2022-11-12T23:01:21.295Z,9.43
2022-11-12T23:03:48.994Z,9.40
2022-11-12T23:06:15.907Z,9.35
2022-11-12T23:08:42.617Z,9.31
2022-11-12T23:11:14.926Z,9.28
2022-11-12T23:13:41.953Z,9.30
2022-11-12T23:16:14.666Z,9.28
2022-11-12T23:18:41.225Z,9.22
2022-11-12T23:21:13.033Z,9.16
2022-11-12T23:23:39.743Z,9.11
2022-11-12T23:26:14.015Z,9.10
2022-11-12T23:28:40.767Z,9.10
2022-11-12T23:31:12.521Z,9.01
2022-11-12T23:33:39.058Z,9.03
2022-11-12T23:36:10.902Z,9.01
2022-11-12T23:38:37.601Z,8.92
2022-11-12T23:41:04.593Z,8.93
2022-11-12T23:43:31.411Z,8.89
2022-11-12T23:45:58.286Z,8.88
2022-11-12T23:48:25.549Z,8.87
2022-11-12T23:50:59.741Z,8.85
2022-11-12T23:53:26.189Z,8.82
2022-11-12T23:55:52.799Z,8.80
2022-11-12T23:58:19.235Z,8.78
